Time;durP1;ratioP1;P1;durP2;ratioP2;P2;SDS_P1;SDS_P2;PMS_P1;PMS_P2;Temp;Humidity;BMP_temperature;BMP_pressure;BME280_temperature;BME280_humidity;BME280_pressure;Samples;Min_cycle;Max_cycle;Signal;HPM_P1;HPM_P2
2024/02/23 00:01:36;;;;;;;8.77;2.50;;;6.20;99.90;;;;;;5107863;28;20248;-46
2024/02/23 00:04:02;;;;;;;7.90;2.00;;;6.20;99.90;;;;;;5107787;28;20162;-45
2024/02/23 00:06:28;;;;;;;9.50;2.15;;;6.10;99.90;;;;;;5107695;28;20155;-45
2024/02/23 00:08:54;;;;;;;10.45;2.75;;;6.20;99.90;;;;;;5108099;28;20147;-44
2024/02/23 00:11:21;;;;;;;9.40;2.83;;;6.20;99.90;;;;;;5107526;28;20015;-45
2024/02/23 00:13:46;;;;;;;8.77;1.90;;;6.20;99.90;;;;;;5107559;28;20038;-44
2024/02/23 00:16:12;;;;;;;7.25;1.30;;;6.30;99.90;;;;;;5107639;28;20032;-44
2024/02/23 00:18:38;;;;;;;4.38;1.27;;;6.30;99.90;;;;;;5107598;28;20020;-45
2024/02/23 00:21:04;;;;;;;2.83;1.27;;;6.30;99.90;;;;;;5106674;28;20293;-44
2024/02/23 00:23:30;;;;;;;5.55;1.50;;;6.40;99.90;;;;;;5107170;28;20044;-44
2024/02/23 00:25:55;;;;;;;6.28;1.65;;;6.40;99.90;;;;;;5107173;28;20028;-45
2024/02/23 00:28:21;;;;;;;3.85;1.50;;;6.40;99.90;;;;;;5107344;28;20305;-45
2024/02/23 00:30:47;;;;;;;4.78;1.25;;;6.40;99.90;;;;;;5107002;28;20031;-45
2024/02/23 00:33:12;;;;;;;7.68;1.70;;;6.50;99.90;;;;;;5106247;28;20040;-44
2024/02/23 00:35:38;;;;;;;8.70;1.50;;;6.50;99.90;;;;;;5107092;28;20107;-44
2024/02/23 00:38:04;;;;;;;5.00;1.50;;;6.50;99.90;;;;;;5107166;28;20028;-47
2024/02/23 00:40:30;;;;;;;4.22;1.40;;;6.50;99.90;;;;;;5107216;28;20030;-46
2024/02/23 00:42:55;;;;;;;6.15;1.60;;;6.50;99.90;;;;;;5107046;28;20044;-45
2024/02/23 00:45:21;;;;;;;6.75;1.63;;;6.50;99.90;;;;;;5106855;28;20030;-45
2024/02/23 00:47:47;;;;;;;4.32;1.63;;;6.60;99.90;;;;;;5106855;28;20027;-46
2024/02/23 00:50:13;;;;;;;7.25;1.95;;;6.60;99.90;;;;;;5107046;28;20027;-45
2024/02/23 00:52:39;;;;;;;6.70;1.45;;;6.60;99.90;;;;;;5106979;28;20020;-46
2024/02/23 00:55:05;;;;;;;6.88;1.40;;;6.60;99.90;;;;;;5106915;28;20339;-47
2024/02/23 00:57:30;;;;;;;3.70;1.30;;;6.50;99.90;;;;;;5106379;28;20321;-45
2024/02/23 00:59:57;;;;;;;3.83;1.23;;;6.50;99.90;;;;;;5106691;28;20087;-45
2024/02/23 01:02:22;;;;;;;7.20;1.30;;;6.40;99.90;;;;;;5106840;28;20024;-46
2024/02/23 01:04:48;;;;;;;5.15;1.23;;;6.30;99.90;;;;;;5106416;28;20039;-45
2024/02/23 01:07:14;;;;;;;2.63;0.90;;;6.20;99.90;;;;;;5106411;28;20051;-46
2024/02/23 01:09:39;;;;;;;3.45;1.20;;;6.20;99.90;;;;;;5106570;28;20028;-44
2024/02/23 01:12:05;;;;;;;3.70;1.05;;;6.20;99.90;;;;;;5106540;28;20146;-44
2024/02/23 01:14:31;;;;;;;4.07;1.10;;;6.30;99.90;;;;;;5106600;28;20016;-45
2024/02/23 01:16:56;;;;;;;3.95;0.90;;;6.30;99.90;;;;;;5106474;28;20103;-46
2024/02/23 01:19:23;;;;;;;3.78;1.27;;;6.40;99.90;;;;;;5106611;28;20047;-46
2024/02/23 01:21:55;;;;;;;3.78;0.80;;;6.40;99.90;;;;;;5106542;28;20269;-46
2024/02/23 01:24:21;;;;;;;3.67;1.10;;;6.40;99.90;;;;;;5106470;28;20092;-45
2024/02/23 01:26:46;;;;;;;5.05;1.10;;;6.40;99.90;;;;;;5105910;28;20301;-45
2024/02/23 01:29:12;;;;;;;4.55;1.00;;;6.30;99.90;;;;;;5106267;28;20063;-46
2024/02/23 01:31:38;;;;;;;7.90;1.05;;;6.30;99.90;;;;;;5106105;28;20073;-45
2024/02/23 01:34:03;;;;;;;5.03;1.67;;;6.20;99.90;;;;;;5106315;28;20051;-45
2024/02/23 01:36:29;;;;;;;5.47;1.17;;;6.10;99.90;;;;;;5106192;28;20079;-45
2024/02/23 01:38:55;;;;;;;5.28;1.10;;;6.10;99.90;;;;;;5106364;28;20028;-44
2024/02/23 01:41:20;;;;;;;7.78;1.33;;;6.00;99.90;;;;;;5105933;28;20060;-45
2024/02/23 01:43:46;;;;;;;5.53;1.25;;;6.00;99.90;;;;;;5105959;28;20020;-45
2024/02/23 01:46:12;;;;;;;4.28;1.33;;;6.00;99.90;;;;;;5105662;28;20020;-45
2024/02/23 01:48:38;;;;;;;5.93;1.20;;;5.90;99.90;;;;;;5105543;28;20095;-46
2024/02/23 01:51:03;;;;;;;8.63;1.38;;;5.90;99.90;;;;;;5105723;28;20039;-45
2024/02/23 01:53:29;;;;;;;5.18;0.90;;;5.90;99.90;;;;;;5104958;28;20069;-46
2024/02/23 01:55:55;;;;;;;3.40;1.30;;;5.90;99.90;;;;;;5104966;28;20035;-46
2024/02/23 01:58:21;;;;;;;4.03;1.20;;;6.00;99.90;;;;;;5105993;28;20223;-47
2024/02/23 02:00:46;;;;;;;9.15;1.40;;;6.00;99.90;;;;;;5105545;28;20038;-46
2024/02/23 02:03:12;;;;;;;4.25;1.20;;;6.00;99.90;;;;;;5105868;28;20032;-46
2024/02/23 02:05:37;;;;;;;3.88;1.50;;;6.00;99.90;;;;;;5105760;28;20222;-46
2024/02/23 02:08:03;;;;;;;5.57;1.30;;;6.10;99.90;;;;;;5105870;28;20066;-46
2024/02/23 02:10:29;;;;;;;5.53;1.30;;;6.10;99.90;;;;;;5105824;28;20032;-46
2024/02/23 02:12:55;;;;;;;3.60;1.27;;;6.20;99.90;;;;;;5105743;28;20204;-47
2024/02/23 02:15:21;;;;;;;5.30;1.42;;;6.30;99.90;;;;;;5087862;28;20031;-45
2024/02/23 02:17:47;;;;;;;7.60;2.10;;;6.30;99.90;;;;;;5105892;28;20039;-46
2024/02/23 02:20:13;;;;;;;4.50;1.33;;;6.30;99.90;;;;;;5105856;28;20031;-49
2024/02/23 02:22:39;;;;;;;4.97;1.25;;;6.30;99.90;;;;;;5105587;28;20054;-47
2024/02/23 02:25:05;;;;;;;6.93;1.20;;;6.40;99.90;;;;;;5105585;28;20112;-46
2024/02/23 02:27:31;;;;;;;8.25;2.00;;;6.40;99.90;;;;;;5105551;28;20059;-47
2024/02/23 02:29:57;;;;;;;4.97;1.20;;;6.40;99.90;;;;;;5105738;28;20073;-46
2024/02/23 02:32:23;;;;;;;5.95;1.65;;;6.40;99.90;;;;;;5105127;28;20048;-46
2024/02/23 02:34:49;;;;;;;5.30;1.27;;;6.50;99.90;;;;;;5105743;28;20020;-46
2024/02/23 02:37:14;;;;;;;6.15;1.15;;;6.50;99.90;;;;;;5105341;28;20232;-47
2024/02/23 02:39:40;;;;;;;5.38;1.02;;;6.60;99.90;;;;;;5104664;28;20228;-46
2024/02/23 02:42:06;;;;;;;4.55;1.33;;;6.60;99.90;;;;;;5105517;28;20024;-45
2024/02/23 02:44:31;;;;;;;6.38;1.20;;;6.60;99.90;;;;;;5107448;28;20122;-47
2024/02/23 02:46:57;;;;;;;5.10;1.60;;;6.60;99.90;;;;;;5109512;28;20091;-45
2024/02/23 02:49:23;;;;;;;5.15;1.13;;;6.50;99.90;;;;;;5109178;28;20015;-46
2024/02/23 02:51:49;;;;;;;7.18;1.63;;;6.50;99.90;;;;;;5109220;28;20016;-47
2024/02/23 02:54:16;;;;;;;5.05;1.20;;;6.50;99.90;;;;;;5109358;28;20035;-46
2024/02/23 02:56:46;;;;;;;7.80;1.95;;;6.50;99.90;;;;;;5109313;28;20059;-47
2024/02/23 02:59:12;;;;;;;5.80;1.27;;;6.50;99.90;;;;;;5109132;28;20046;-46
2024/02/23 03:01:38;;;;;;;3.53;1.30;;;6.50;99.90;;;;;;5108939;28;20197;-46
2024/02/23 03:04:04;;;;;;;3.92;1.40;;;6.50;99.90;;;;;;5108512;28;20285;-46
2024/02/23 03:06:30;;;;;;;3.78;1.15;;;6.40;99.90;;;;;;5108861;28;20073;-47
2024/02/23 03:08:55;;;;;;;8.00;1.55;;;6.40;99.90;;;;;;5108871;28;20028;-47
2024/02/23 03:11:21;;;;;;;4.80;1.13;;;6.40;99.90;;;;;;5108785;28;20051;-46
2024/02/23 03:13:47;;;;;;;4.65;1.23;;;6.40;99.90;;;;;;5108932;28;20024;-46
2024/02/23 03:16:17;;;;;;;10.02;1.30;;;6.40;99.90;;;;;;5108974;28;20100;-46
2024/02/23 03:18:42;;;;;;;8.57;1.27;;;6.40;99.90;;;;;;5108900;28;20039;-48
2024/02/23 03:21:09;;;;;;;6.05;1.20;;;6.30;99.90;;;;;;5108519;28;20095;-46
2024/02/23 03:23:35;;;;;;;4.60;1.00;;;6.30;99.90;;;;;;5108562;28;20082;-46
2024/02/23 03:26:01;;;;;;;7.95;1.38;;;6.30;99.90;;;;;;5108720;28;20024;-47
2024/02/23 03:28:27;;;;;;;5.07;1.30;;;6.40;99.90;;;;;;5108584;28;20273;-46
2024/02/23 03:30:52;;;;;;;2.55;0.90;;;6.40;99.90;;;;;;5108492;28;20265;-47
2024/02/23 03:33:18;;;;;;;8.38;1.17;;;6.40;99.90;;;;;;5108325;28;20027;-46
2024/02/23 03:35:43;;;;;;;4.55;1.20;;;6.40;99.90;;;;;;5107548;28;20032;-46
2024/02/23 03:38:09;;;;;;;5.00;1.17;;;6.50;99.90;;;;;;5108483;28;20062;-46
2024/02/23 03:40:35;;;;;;;4.70;1.35;;;6.40;99.90;;;;;;5108439;28;20169;-46
2024/02/23 03:43:02;;;;;;;7.28;1.30;;;6.40;99.90;;;;;;5108293;28;20085;-46
2024/02/23 03:45:27;;;;;;;6.38;1.45;;;6.40;99.90;;;;;;5108269;28;20051;-47
2024/02/23 03:47:53;;;;;;;6.15;1.15;;;6.40;99.90;;;;;;5108327;28;20081;-46
2024/02/23 03:50:19;;;;;;;6.93;1.00;;;6.40;99.90;;;;;;5108314;28;20030;-45
2024/02/23 03:52:45;;;;;;;6.22;1.30;;;6.40;99.90;;;;;;5108168;28;20316;-46
2024/02/23 03:55:10;;;;;;;4.10;1.20;;;6.40;99.90;;;;;;5106893;28;20035;-46
2024/02/23 03:57:37;;;;;;;9.07;1.52;;;6.40;99.90;;;;;;5108121;28;20093;-46
2024/02/23 04:00:02;;;;;;;5.50;1.13;;;6.50;99.90;;;;;;5108040;28;20032;-45
2024/02/23 04:02:29;;;;;;;5.85;1.27;;;6.50;99.90;;;;;;5107931;28;20024;-47
2024/02/23 04:04:54;;;;;;;5.93;1.10;;;6.50;99.90;;;;;;5107840;28;20099;-46
2024/02/23 04:07:20;;;;;;;5.15;1.30;;;6.60;99.90;;;;;;5107581;28;20046;-46
2024/02/23 04:09:51;;;;;;;9.32;1.30;;;6.60;99.90;;;;;;5107408;28;20024;-46
2024/02/23 04:12:19;;;;;;;8.38;1.15;;;6.60;99.90;;;;;;5107913;28;20024;-46
2024/02/23 04:14:44;;;;;;;9.40;1.38;;;6.60;99.90;;;;;;5107759;28;20040;-47
2024/02/23 04:17:11;;;;;;;6.75;1.30;;;6.60;99.90;;;;;;5107432;28;20333;-47
2024/02/23 04:19:37;;;;;;;5.97;1.30;;;6.60;99.90;;;;;;5107503;28;20300;-47
2024/02/23 04:22:03;;;;;;;6.38;1.42;;;6.70;99.90;;;;;;5107332;28;20095;-44
2024/02/23 04:24:29;;;;;;;5.65;1.30;;;6.70;99.90;;;;;;5106509;28;20216;-46
2024/02/23 04:26:55;;;;;;;5.97;1.63;;;6.60;99.90;;;;;;5107552;28;20150;-47
2024/02/23 04:29:20;;;;;;;7.25;1.70;;;6.50;99.90;;;;;;5107407;28;20024;-47
2024/02/23 04:31:46;;;;;;;6.18;1.63;;;6.50;99.90;;;;;;5107309;28;20034;-46
2024/02/23 04:34:12;;;;;;;4.35;1.20;;;6.30;99.90;;;;;;5107384;28;20043;-46
2024/02/23 04:36:37;;;;;;;5.72;1.23;;;6.30;99.90;;;;;;5107388;28;20098;-46
2024/02/23 04:39:04;;;;;;;5.20;1.02;;;6.20;99.90;;;;;;5107384;28;20043;-45
2024/02/23 04:41:29;;;;;;;5.47;1.25;;;6.20;99.90;;;;;;5107493;28;20050;-45
2024/02/23 04:43:59;;;;;;;4.57;1.05;;;6.20;99.90;;;;;;5107203;28;20277;-46
2024/02/23 04:46:25;;;;;;;4.90;1.20;;;6.20;99.90;;;;;;5107059;28;20285;-46
2024/02/23 04:48:51;;;;;;;6.40;1.27;;;6.20;99.90;;;;;;5107025;28;20225;-46
2024/02/23 04:51:17;;;;;;;3.65;0.95;;;6.20;99.90;;;;;;5107019;28;20028;-45
2024/02/23 04:53:42;;;;;;;5.30;1.08;;;6.30;99.90;;;;;;5107114;28;20016;-46
2024/02/23 04:56:08;;;;;;;4.13;1.00;;;6.30;99.90;;;;;;5106920;28;20024;-45
2024/02/23 04:58:34;;;;;;;2.97;1.00;;;6.40;99.90;;;;;;5105732;28;20036;-45
2024/02/23 05:01:00;;;;;;;11.07;1.75;;;6.40;99.90;;;;;;5106816;28;20047;-46
2024/02/23 05:03:26;;;;;;;6.72;1.42;;;6.50;99.90;;;;;;5106655;28;20032;-46
2024/02/23 05:05:53;;;;;;;5.25;1.05;;;6.50;99.90;;;;;;5106879;28;20036;-46
2024/02/23 05:08:24;;;;;;;4.68;1.38;;;6.40;99.90;;;;;;5106428;28;20030;-45
2024/02/23 05:10:52;;;;;;;6.60;1.40;;;6.40;99.90;;;;;;5106356;28;20024;-46
2024/02/23 05:13:18;;;;;;;4.50;1.00;;;6.40;99.90;;;;;;5106399;28;20063;-46
2024/02/23 05:15:43;;;;;;;5.68;1.55;;;6.30;99.90;;;;;;5105556;28;20042;-45
2024/02/23 05:18:09;;;;;;;3.10;0.80;;;6.20;99.90;;;;;;5106692;28;20039;-45
2024/02/23 05:20:34;;;;;;;3.90;0.93;;;6.20;99.90;;;;;;5106579;28;20214;-46
2024/02/23 05:23:00;;;;;;;4.35;1.00;;;6.10;99.90;;;;;;5084894;28;20229;-46
2024/02/23 05:25:26;;;;;;;3.83;1.08;;;6.10;99.90;;;;;;5085968;28;20032;-46
2024/02/23 05:27:52;;;;;;;8.10;1.30;;;6.00;99.90;;;;;;5085567;28;20084;-46
2024/02/23 05:30:18;;;;;;;7.22;1.30;;;6.00;99.90;;;;;;5086167;28;20025;-45
2024/02/23 05:32:43;;;;;;;2.88;0.93;;;5.90;99.90;;;;;;5085630;28;20036;-45
2024/02/23 05:35:09;;;;;;;3.70;1.10;;;5.90;99.90;;;;;;5086133;28;20035;-45
2024/02/23 05:37:38;;;;;;;6.60;1.10;;;5.90;99.90;;;;;;5085883;28;20036;-45
2024/02/23 05:40:10;;;;;;;4.28;0.80;;;6.00;99.90;;;;;;5085912;28;20024;-45
2024/02/23 05:42:39;;;;;;;3.05;0.90;;;6.00;99.90;;;;;;5086015;28;20061;-46
2024/02/23 05:45:08;;;;;;;4.35;1.10;;;6.10;99.90;;;;;;5085702;28;20100;-45
2024/02/23 05:47:37;;;;;;;5.82;1.10;;;6.10;99.90;;;;;;5085411;28;20052;-46
2024/02/23 05:50:04;;;;;;;5.82;1.30;;;6.10;99.90;;;;;;5085766;28;20050;-46
2024/02/23 05:52:31;;;;;;;3.33;0.98;;;6.20;99.90;;;;;;5085633;28;20028;-46
2024/02/23 05:54:57;;;;;;;8.40;1.00;;;6.20;99.90;;;;;;5085445;28;20033;-45
2024/02/23 05:57:22;;;;;;;7.68;1.23;;;6.20;99.90;;;;;;5085809;28;20297;-46
2024/02/23 05:59:48;;;;;;;4.78;1.17;;;6.30;99.90;;;;;;5085736;28;20036;-46
2024/02/23 06:02:14;;;;;;;5.40;1.15;;;6.30;99.90;;;;;;5085680;28;20096;-46
2024/02/23 06:04:43;;;;;;;4.78;0.82;;;6.30;99.90;;;;;;5085846;28;20025;-45
2024/02/23 06:07:08;;;;;;;5.90;1.15;;;6.30;99.90;;;;;;5085579;28;20024;-45
2024/02/23 06:09:34;;;;;;;8.45;1.27;;;6.30;99.90;;;;;;5085411;28;20098;-46
2024/02/23 06:12:00;;;;;;;4.13;1.00;;;6.20;99.90;;;;;;5085500;28;20109;-46
2024/02/23 06:14:25;;;;;;;4.50;0.95;;;6.20;99.90;;;;;;5085642;28;20032;-46
2024/02/23 06:16:51;;;;;;;3.65;0.93;;;6.20;99.90;;;;;;5085350;28;20227;-46
2024/02/23 06:19:17;;;;;;;12.27;1.70;;;6.20;99.90;;;;;;5102817;28;20160;-45
2024/02/23 06:21:42;;;;;;;1.95;0.80;;;6.20;99.90;;;;;;5089520;28;20045;-46
2024/02/23 06:24:08;;;;;;;2.30;1.05;;;6.20;99.90;;;;;;5108149;28;20052;-47
2024/02/23 06:26:34;;;;;;;5.55;1.40;;;6.20;99.90;;;;;;5091733;28;20023;-46
2024/02/23 06:29:00;;;;;;;6.72;1.10;;;6.20;99.90;;;;;;5110130;28;20035;-45
2024/02/23 06:31:26;;;;;;;3.05;1.10;;;6.30;99.90;;;;;;5109835;28;20032;-47
2024/02/23 06:33:51;;;;;;;4.18;0.95;;;6.20;99.90;;;;;;5109562;28;20024;-45
2024/02/23 06:36:18;;;;;;;6.65;1.48;;;6.20;99.90;;;;;;5109590;28;20058;-44
2024/02/23 06:38:44;;;;;;;4.00;0.98;;;6.20;99.90;;;;;;5109655;28;20040;-45
2024/02/23 06:41:11;;;;;;;3.25;1.00;;;6.20;99.90;;;;;;5109582;28;20054;-46
2024/02/23 06:43:37;;;;;;;7.78;1.40;;;6.10;99.90;;;;;;5109257;28;20042;-44
2024/02/23 06:46:09;;;;;;;8.77;1.55;;;6.10;99.90;;;;;;5108490;28;20271;-46
2024/02/23 06:48:35;;;;;;;5.85;1.65;;;6.00;99.90;;;;;;5109144;28;20038;-44
2024/02/23 06:51:01;;;;;;;6.03;1.65;;;6.00;99.90;;;;;;5109253;28;20047;-44
2024/02/23 06:53:27;;;;;;;7.40;1.67;;;6.00;99.90;;;;;;5108926;28;20320;-46
2024/02/23 06:55:53;;;;;;;6.03;1.60;;;6.00;99.90;;;;;;5108921;28;20020;-44
2024/02/23 06:58:18;;;;;;;8.18;1.48;;;6.00;99.90;;;;;;5109313;28;20194;-44
2024/02/23 07:00:44;;;;;;;7.82;1.60;;;6.00;99.90;;;;;;5109106;28;20243;-45
2024/02/23 07:03:10;;;;;;;5.07;1.48;;;6.00;99.90;;;;;;5109107;28;20051;-44
2024/02/23 07:05:35;;;;;;;5.78;2.25;;;6.10;99.90;;;;;;5108563;28;20217;-45
2024/02/23 07:08:01;;;;;;;8.38;1.17;;;6.00;99.90;;;;;;5107642;28;20050;-45
2024/02/23 07:10:27;;;;;;;4.63;1.77;;;6.00;99.90;;;;;;5108857;28;20020;-45
2024/02/23 07:12:53;;;;;;;7.57;2.00;;;6.00;99.90;;;;;;5108990;28;20031;-45
2024/02/23 07:15:20;;;;;;;5.93;1.30;;;6.00;99.90;;;;;;5108775;28;20095;-45
2024/02/23 07:17:46;;;;;;;2.83;1.23;;;6.00;99.90;;;;;;5109044;28;20077;-46
2024/02/23 07:20:11;;;;;;;6.07;1.40;;;6.00;99.90;;;;;;5108781;28;20032;-46
2024/02/23 07:22:37;;;;;;;3.95;0.90;;;6.10;99.90;;;;;;5108538;28;20075;-45
2024/02/23 07:25:03;;;;;;;3.13;1.10;;;6.10;99.90;;;;;;5108309;28;20028;-47
2024/02/23 07:27:30;;;;;;;10.90;1.30;;;6.10;99.90;;;;;;5108425;28;20028;-46
2024/02/23 07:29:57;;;;;;;6.50;1.30;;;6.10;99.90;;;;;;5090343;28;20317;-47
2024/02/23 07:32:23;;;;;;;5.03;1.15;;;6.20;99.90;;;;;;5108514;28;20025;-46
2024/02/23 07:34:49;;;;;;;7.47;1.50;;;6.20;99.90;;;;;;5108129;28;20036;-47
2024/02/23 07:37:15;;;;;;;3.25;1.30;;;6.20;99.90;;;;;;5108263;28;20082;-46
2024/02/23 07:39:40;;;;;;;8.88;1.70;;;6.20;99.90;;;;;;5107762;28;20035;-47
2024/02/23 07:42:08;;;;;;;4.03;1.45;;;6.20;99.90;;;;;;5108011;28;20036;-46
2024/02/23 07:44:33;;;;;;;9.52;1.73;;;6.20;99.90;;;;;;5107989;28;20028;-48
2024/02/23 07:46:59;;;;;;;4.72;1.27;;;6.20;99.90;;;;;;5107141;28;20079;-47
2024/02/23 07:49:27;;;;;;;7.28;1.30;;;6.20;99.90;;;;;;5107864;28;20178;-46
2024/02/23 07:51:52;;;;;;;3.90;1.13;;;6.20;99.90;;;;;;5107717;28;20032;-46
2024/02/23 07:54:18;;;;;;;8.35;1.70;;;6.20;99.90;;;;;;5107959;28;20042;-46
2024/02/23 07:56:43;;;;;;;5.35;1.20;;;6.20;99.90;;;;;;5107924;28;20043;-46
2024/02/23 07:59:09;;;;;;;7.30;1.45;;;6.30;99.90;;;;;;5107582;28;20141;-46
2024/02/23 08:01:35;;;;;;;6.50;1.60;;;6.30;99.90;;;;;;5107490;28;20020;-47
2024/02/23 08:04:01;;;;;;;8.50;1.50;;;6.30;99.90;;;;;;5107693;28;20239;-45
2024/02/23 08:06:26;;;;;;;6.88;2.25;;;6.30;99.90;;;;;;5107518;28;20032;-45
2024/02/23 08:08:53;;;;;;;5.50;1.23;;;6.40;99.90;;;;;;5107087;28;20023;-46
2024/02/23 08:11:19;;;;;;;9.93;1.67;;;6.40;99.90;;;;;;5107376;28;20028;-44
2024/02/23 08:13:45;;;;;;;6.35;1.40;;;6.40;99.90;;;;;;5107619;28;20186;-46
2024/02/23 08:16:10;;;;;;;6.07;1.35;;;6.40;99.90;;;;;;5089399;28;20030;-44
2024/02/23 08:18:36;;;;;;;5.45;1.17;;;6.40;99.90;;;;;;5107540;28;20040;-44
2024/02/23 08:21:02;;;;;;;3.28;0.90;;;6.40;99.90;;;;;;5107391;28;20270;-45
2024/02/23 08:23:29;;;;;;;7.03;1.10;;;6.40;99.90;;;;;;5107098;28;20047;-44
2024/02/23 08:25:56;;;;;;;6.82;1.00;;;6.50;99.90;;;;;;5107405;28;20043;-45
2024/02/23 08:28:23;;;;;;;6.35;1.00;;;6.50;99.90;;;;;;5105880;28;20100;-44
2024/02/23 08:30:48;;;;;;;3.95;1.40;;;6.50;99.90;;;;;;5106749;28;20024;-44
2024/02/23 08:33:14;;;;;;;8.82;1.25;;;6.60;99.90;;;;;;5107000;28;20241;-44
2024/02/23 08:35:40;;;;;;;4.63;1.35;;;6.70;99.90;;;;;;5106902;28;20043;-45
2024/02/23 08:38:05;;;;;;;6.88;1.40;;;6.70;99.90;;;;;;5107109;28;20024;-45
2024/02/23 08:40:31;;;;;;;3.35;1.10;;;6.80;99.90;;;;;;5106880;28;20323;-46
2024/02/23 08:42:56;;;;;;;6.20;1.23;;;6.80;99.90;;;;;;5106356;28;20048;-46
2024/02/23 08:45:22;;;;;;;7.10;1.25;;;6.80;99.90;;;;;;5106642;28;20053;-47
2024/02/23 08:47:48;;;;;;;8.80;1.60;;;6.70;99.90;;;;;;5106463;28;20063;-46
2024/02/23 08:50:14;;;;;;;27.65;10.95;;;6.70;99.90;;;;;;5106570;28;20020;-45
2024/02/23 08:52:40;;;;;;;5.93;1.40;;;6.70;99.90;;;;;;5106441;28;20024;-45
2024/02/23 08:55:05;;;;;;;8.57;2.05;;;6.70;99.90;;;;;;5106168;28;20157;-45
2024/02/23 08:57:31;;;;;;;8.90;1.75;;;6.80;99.90;;;;;;5106644;28;20032;-48
2024/02/23 08:59:57;;;;;;;7.70;1.38;;;7.10;99.90;;;;;;5105877;28;20023;-47
2024/02/23 09:02:26;;;;;;;5.40;1.35;;;7.10;99.90;;;;;;5106043;28;20062;-46
2024/02/23 09:04:52;;;;;;;10.57;1.48;;;7.20;99.90;;;;;;5106237;28;20269;-45
2024/02/23 09:07:20;;;;;;;3.78;1.40;;;7.30;99.90;;;;;;5106310;28;20028;-45
2024/02/23 09:09:46;;;;;;;7.20;1.48;;;7.40;99.90;;;;;;5105230;28;20028;-47
2024/02/23 09:12:14;;;;;;;4.25;1.30;;;7.90;99.90;;;;;;5106212;28;20085;-47
2024/02/23 09:14:41;;;;;;;7.10;1.30;;;9.00;99.90;;;;;;5105051;28;20015;-48
2024/02/23 09:17:08;;;;;;;5.57;1.17;;;10.20;99.90;;;;;;5105981;28;20058;-47
2024/02/23 09:19:34;;;;;;;4.63;1.40;;;11.00;99.90;;;;;;5105861;28;20032;-46
2024/02/23 09:22:00;;;;;;;4.95;0.90;;;11.50;99.90;;;;;;5105915;28;20039;-46
2024/02/23 09:24:26;;;;;;;3.95;0.93;;;12.00;99.90;;;;;;5105852;28;20051;-48
2024/02/23 09:26:52;;;;;;;7.10;1.15;;;11.90;99.90;;;;;;5105843;28;20031;-47
2024/02/23 09:29:18;;;;;;;9.05;2.33;;;12.20;99.90;;;;;;5105647;28;20020;-50
2024/02/23 09:31:44;;;;;;;3.72;0.90;;;12.30;99.90;;;;;;5105423;28;20036;-50
2024/02/23 09:34:10;;;;;;;3.67;0.98;;;11.80;99.90;;;;;;5106049;28;20078;-47
2024/02/23 09:36:36;;;;;;;5.10;1.73;;;11.20;99.90;;;;;;5105550;28;20066;-47
2024/02/23 09:39:04;;;;;;;7.63;1.10;;;11.00;99.90;;;;;;5105681;28;20058;-47
2024/02/23 09:41:30;;;;;;;4.03;1.10;;;10.30;99.90;;;;;;5105687;28;20270;-46
2024/02/23 09:43:59;;;;;;;6.80;1.42;;;9.70;99.90;;;;;;5105698;28;20043;-49
2024/02/23 09:46:25;;;;;;;5.27;1.00;;;9.50;99.90;;;;;;5087541;28;20104;-46
2024/02/23 09:48:51;;;;;;;2.78;0.98;;;9.90;99.90;;;;;;5104680;28;20023;-48
2024/02/23 09:51:17;;;;;;;5.10;1.02;;;11.80;99.90;;;;;;5105419;28;20043;-45
2024/02/23 09:53:43;;;;;;;6.88;1.42;;;11.40;99.90;;;;;;5105415;28;20036;-49
2024/02/23 09:56:09;;;;;;;16.73;15.02;;;10.90;99.90;;;;;;5104385;28;20138;-49
2024/02/23 09:58:37;;;;;;;5.38;1.40;;;10.20;99.90;;;;;;5105053;28;20024;-47
2024/02/23 10:01:03;;;;;;;1.98;1.08;;;11.50;99.90;;;;;;5104271;28;20040;-47
2024/02/23 10:03:30;;;;;;;2.85;0.90;;;12.90;99.90;;;;;;5105161;28;20091;-47
2024/02/23 10:06:02;;;;;;;8.10;1.23;;;12.70;99.90;;;;;;5103731;28;20023;-48
2024/02/23 10:08:28;;;;;;;4.47;1.23;;;12.30;99.90;;;;;;5105163;28;20110;-49
2024/02/23 10:10:55;;;;;;;7.25;1.20;;;11.50;99.90;;;;;;5104981;28;20081;-49
2024/02/23 10:13:22;;;;;;;5.43;1.20;;;10.70;99.90;;;;;;5105369;28;20091;-45
2024/02/23 10:15:48;;;;;;;6.53;2.72;;;10.00;99.90;;;;;;5105451;28;20047;-45
2024/02/23 10:18:14;;;;;;;5.82;1.30;;;10.20;99.90;;;;;;5105287;28;20087;-49
2024/02/23 10:20:40;;;;;;;3.42;1.00;;;12.20;99.90;;;;;;5105248;28;20020;-49
2024/02/23 10:23:07;;;;;;;9.55;1.40;;;13.60;99.90;;;;;;5105247;28;20185;-48
2024/02/23 10:25:36;;;;;;;5.70;1.27;;;15.00;99.90;;;;;;5105229;28;20020;-47
2024/02/23 10:28:05;;;;;;;4.37;0.90;;;14.60;99.90;;;;;;5104947;28;20079;-48
2024/02/23 10:30:31;;;;;;;4.95;1.02;;;14.50;99.90;;;;;;5104985;28;20028;-46
2024/02/23 10:32:57;;;;;;;5.22;1.10;;;14.30;99.90;;;;;;5104826;28;20031;-48
2024/02/23 10:35:24;;;;;;;11.38;2.72;;;13.00;99.90;;;;;;5104791;28;20080;-46
2024/02/23 10:37:53;;;;;;;4.20;0.90;;;11.80;99.90;;;;;;5105058;28;20035;-48
2024/02/23 10:40:19;;;;;;;5.07;1.15;;;11.10;99.90;;;;;;5105208;28;20182;-48
2024/02/23 10:42:47;;;;;;;5.13;1.20;;;10.50;99.90;;;;;;5104872;28;20031;-46
2024/02/23 10:45:15;;;;;;;6.32;1.17;;;10.40;99.90;;;;;;5104888;28;20190;-49
2024/02/23 10:47:40;;;;;;;8.48;1.55;;;10.50;99.90;;;;;;5103820;28;20047;-48
2024/02/23 10:50:06;;;;;;;5.07;1.30;;;10.50;99.90;;;;;;5070293;28;20024;-46
2024/02/23 10:52:32;;;;;;;7.40;4.15;;;10.40;99.90;;;;;;5103787;28;20047;-46
2024/02/23 10:54:57;;;;;;;8.45;1.45;;;10.20;99.90;;;;;;5104123;28;20040;-46
2024/02/23 10:57:23;;;;;;;6.55;1.67;;;10.00;99.90;;;;;;5104244;28;20212;-45
2024/02/23 10:59:49;;;;;;;7.10;2.25;;;10.60;99.90;;;;;;5104956;28;20146;-47
2024/02/23 11:02:20;;;;;;;4.38;1.27;;;10.80;99.90;;;;;;5104903;28;20081;-45
2024/02/23 11:04:52;;;;;;;3.20;1.92;;;12.10;99.90;;;;;;5105769;28;20091;-47
2024/02/23 11:07:21;;;;;;;3.97;1.02;;;12.50;99.90;;;;;;5108588;28;20043;-45
2024/02/23 11:09:52;;;;;;;10.57;6.35;;;11.30;99.90;;;;;;5107223;28;20023;-46
2024/02/23 11:12:24;;;;;;;16.23;12.65;;;11.30;99.90;;;;;;5108625;28;20032;-46
2024/02/23 11:14:51;;;;;;;5.40;2.53;;;13.20;99.90;;;;;;5108017;28;20020;-49
2024/02/23 11:17:22;;;;;;;32.00;20.27;;;14.60;99.90;;;;;;5108222;28;20099;-45
2024/02/23 11:19:51;;;;;;;4.60;2.70;;;15.40;99.90;;;;;;5090861;28;20070;-48
2024/02/23 11:22:27;;;;;;;9.30;3.63;;;14.50;99.90;;;;;;5090182;28;20325;-48
2024/02/23 11:24:52;;;;;;;10.77;5.70;;;13.20;99.90;;;;;;5107196;28;20032;-47
2024/02/23 11:27:18;;;;;;;35.78;19.80;;;12.80;99.90;;;;;;5106796;28;20051;-45
2024/02/23 11:29:49;;;;;;;17.45;13.55;;;13.80;99.90;;;;;;5107878;28;20027;-49
2024/02/23 11:32:17;;;;;;;3.55;1.85;;;14.40;99.90;;;;;;5108049;28;20028;-49
2024/02/23 11:34:55;;;;;;;7.15;2.80;;;13.00;99.90;;;;;;5107917;28;20147;-49
2024/02/23 11:37:21;;;;;;;11.68;7.10;;;12.80;99.90;;;;;;5107381;28;20343;-48
2024/02/23 11:39:47;;;;;;;7.25;4.50;;;12.00;99.90;;;;;;5108285;28;20051;-47
2024/02/23 11:42:12;;;;;;;10.40;5.53;;;12.10;99.90;;;;;;5108030;28;20027;-50
2024/02/23 11:44:38;;;;;;;6.88;2.08;;;11.80;99.90;;;;;;5107635;28;20043;-46
2024/02/23 11:47:04;;;;;;;6.07;2.38;;;11.40;99.90;;;;;;5107466;28;20073;-46
2024/02/23 11:49:30;;;;;;;5.50;1.42;;;11.80;99.90;;;;;;5107472;28;20028;-48
2024/02/23 11:51:55;;;;;;;5.60;1.70;;;12.10;99.90;;;;;;5106705;28;20043;-48
2024/02/23 11:54:22;;;;;;;9.48;5.32;;;12.70;99.90;;;;;;5107863;28;20028;-45
2024/02/23 11:56:49;;;;;;;6.38;1.55;;;12.50;99.90;;;;;;5107039;28;20024;-46
2024/02/23 11:59:15;;;;;;;4.32;1.33;;;11.90;99.90;;;;;;5107383;28;20039;-48
2024/02/23 12:01:41;;;;;;;7.10;1.58;;;11.50;99.90;;;;;;5107465;28;20271;-50
2024/02/23 12:04:07;;;;;;;17.83;10.13;;;11.50;99.90;;;;;;5107458;28;20050;-47
2024/02/23 12:06:33;;;;;;;30.77;22.85;;;11.20;99.90;;;;;;5089057;28;20278;-50
2024/02/23 12:09:00;;;;;;;15.63;7.75;;;11.20;99.90;;;;;;5107004;28;20186;-48
2024/02/23 12:11:25;;;;;;;7.00;3.55;;;11.30;99.90;;;;;;5106247;28;20289;-48
2024/02/23 12:13:51;;;;;;;11.73;7.13;;;10.90;99.90;;;;;;5106053;28;20032;-47
2024/02/23 12:16:17;;;;;;;6.82;2.80;;;11.20;99.90;;;;;;5106406;28;20185;-46
2024/02/23 12:18:42;;;;;;;9.45;5.55;;;12.00;99.90;;;;;;5106595;28;20288;-48
2024/02/23 12:21:08;;;;;;;6.78;2.15;;;12.70;99.90;;;;;;5088612;28;20027;-50
2024/02/23 12:23:44;;;;;;;7.57;6.20;;;11.80;99.90;;;;;;5088960;28;20062;-48
2024/02/23 12:26:13;;;;;;;4.35;1.55;;;12.00;99.90;;;;;;5106895;28;20062;-50
2024/02/23 12:28:38;;;;;;;3.85;1.70;;;11.80;99.90;;;;;;5106127;28;20235;-47
2024/02/23 12:31:04;;;;;;;4.13;1.88;;;11.10;99.90;;;;;;5106747;28;20019;-47
2024/02/23 12:33:34;;;;;;;3.95;1.35;;;12.10;99.90;;;;;;5106944;28;20055;-49
2024/02/23 12:36:00;;;;;;;3.80;0.98;;;12.80;99.90;;;;;;5106823;28;20023;-47
2024/02/23 12:38:26;;;;;;;5.18;1.73;;;12.70;99.90;;;;;;5106820;28;20129;-49
2024/02/23 12:40:51;;;;;;;4.82;1.10;;;13.00;99.90;;;;;;5106596;28;20093;-47
2024/02/23 12:43:17;;;;;;;5.57;1.80;;;12.50;99.90;;;;;;5106692;28;20020;-46
2024/02/23 12:45:49;;;;;;;2.65;1.58;;;12.70;99.90;;;;;;5106544;28;20054;-50
2024/02/23 12:48:15;;;;;;;3.28;0.90;;;13.70;99.90;;;;;;5106488;28;20214;-48